Time;durP1;ratioP1;P1;durP2;ratioP2;P2;SDS_P1;SDS_P2;PMS_P1;PMS_P2;Temp;Humidity;BMP_temperature;BMP_pressure;BME280_temperature;BME280_humidity;BME280_pressure;Samples;Min_cycle;Max_cycle;Signal;HPM_P1;HPM_P2
2023/07/25 00:01:10;;;;;;;11.88;6.22;;;;;;;17.64;100.00;98207.72;5159381;27;20110;-60
2023/07/25 00:03:36;;;;;;;11.73;9.10;;;;;;;17.60;100.00;98223.66;5159354;27;20062;-59
2023/07/25 00:06:03;;;;;;;15.75;6.22;;;;;;;17.62;100.00;98231.53;5159366;27;20046;-59
2023/07/25 00:08:29;;;;;;;14.60;9.38;;;;;;;17.77;100.00;98216.13;5159249;27;20053;-59
2023/07/25 00:10:55;;;;;;;12.68;9.32;;;;;;;17.78;100.00;98192.72;5159336;27;20078;-59
2023/07/25 00:13:21;;;;;;;15.27;9.48;;;;;;;17.88;100.00;98196.44;5158987;27;20104;-59
2023/07/25 00:15:47;;;;;;;11.38;6.75;;;;;;;17.87;100.00;98170.72;5159412;27;20215;-60
2023/07/25 00:18:13;;;;;;;11.52;6.05;;;;;;;17.87;100.00;98165.16;5158945;27;20412;-61
2023/07/25 00:20:39;;;;;;;11.68;9.00;;;;;;;17.87;100.00;98139.44;5159289;27;20046;-61
2023/07/25 00:23:05;;;;;;;12.85;9.25;;;;;;;17.75;100.00;98134.59;5158199;27;20047;-61
2023/07/25 00:25:31;;;;;;;18.35;9.02;;;;;;;17.76;100.00;98156.38;5159095;27;20093;-61
2023/07/25 00:27:57;;;;;;;10.85;6.10;;;;;;;17.80;100.00;98156.28;5159071;27;20054;-62
2023/07/25 00:30:24;;;;;;;7.97;5.65;;;;;;;17.86;100.00;98155.31;5158889;27;20133;-61
2023/07/25 00:32:50;;;;;;;9.93;5.95;;;;;;;17.88;100.00;98144.53;5159035;27;20130;-59
2023/07/25 00:35:16;;;;;;;15.43;6.60;;;;;;;17.88;100.00;98140.97;5158636;27;20137;-60
2023/07/25 00:37:42;;;;;;;12.10;6.38;;;;;;;17.79;100.00;98151.94;5158757;27;20050;-61
2023/07/25 00:40:09;;;;;;;12.38;6.80;;;;;;;17.75;100.00;98154.78;5158626;27;20082;-61
2023/07/25 00:42:35;;;;;;;17.55;7.03;;;;;;;17.74;100.00;98116.41;5158962;27;20057;-60
2023/07/25 00:45:01;;;;;;;16.75;9.57;;;;;;;17.82;100.00;98101.16;5158551;27;20051;-60
2023/07/25 00:47:27;;;;;;;12.65;5.95;;;;;;;17.82;100.00;98090.06;5158806;27;20050;-62
2023/07/25 00:49:54;;;;;;;14.90;9.05;;;;;;;17.73;100.00;98089.91;5158426;27;20133;-60
2023/07/25 00:52:21;;;;;;;12.68;6.40;;;;;;;17.63;100.00;98113.94;5158882;27;20057;-59
2023/07/25 00:54:49;;;;;;;16.20;6.25;;;;;;;17.82;100.00;98107.47;5158268;27;20050;-60
2023/07/25 00:57:17;;;;;;;13.45;6.25;;;;;;;17.94;100.00;98091.31;5158585;27;20051;-60
2023/07/25 00:59:43;;;;;;;9.88;5.63;;;;;;;17.72;100.00;98063.41;5158299;27;20052;-60
2023/07/25 01:02:09;;;;;;;15.43;8.55;;;;;;;17.81;100.00;98105.91;5158418;27;20381;-61
2023/07/25 01:04:36;;;;;;;12.20;6.05;;;;;;;17.98;100.00;98067.03;5158572;27;20047;-60
2023/07/25 01:07:04;;;;;;;11.82;8.95;;;;;;;18.03;100.00;98024.91;5158257;27;20062;-61
2023/07/25 01:09:38;;;;;;;14.48;6.03;;;;;;;18.00;100.00;97998.81;5158568;27;20076;-60
2023/07/25 01:12:05;;;;;;;11.82;8.90;;;;;;;17.98;100.00;97964.44;5158170;27;20137;-61
2023/07/25 01:14:32;;;;;;;7.68;5.75;;;;;;;17.89;100.00;97967.88;5158390;27;20060;-60
2023/07/25 01:17:00;;;;;;;12.15;5.97;;;;;;;17.78;100.00;97951.56;5158021;27;20068;-60
2023/07/25 01:19:29;;;;;;;9.70;5.15;;;;;;;17.97;100.00;97971.97;5158404;27;20051;-60
2023/07/25 01:21:55;;;;;;;9.00;5.90;;;;;;;17.99;100.00;97939.03;5158263;27;20188;-61
2023/07/25 01:24:21;;;;;;;8.90;5.40;;;;;;;18.06;100.00;97922.19;5157912;27;20051;-59
2023/07/25 01:26:47;;;;;;;14.48;8.10;;;;;;;18.09;100.00;97910.19;5158019;27;20507;-60
2023/07/25 01:29:13;;;;;;;11.88;5.40;;;;;;;18.11;100.00;97918.84;5158033;27;20139;-60
2023/07/25 01:31:39;;;;;;;9.80;5.25;;;;;;;18.23;100.00;97895.09;5158158;27;20146;-60
2023/07/25 01:34:05;;;;;;;10.90;7.22;;;;;;;18.20;100.00;97893.22;5157936;27;20387;-59
2023/07/25 01:36:31;;;;;;;12.95;5.55;;;;;;;18.29;100.00;97903.59;5161609;27;20043;-60
2023/07/25 01:38:57;;;;;;;8.27;6.75;;;;;;;18.30;100.00;97883.75;5161584;27;20054;-59
2023/07/25 01:41:23;;;;;;;10.65;5.68;;;;;;;18.44;100.00;97859.50;5161818;27;20142;-60
2023/07/25 01:43:49;;;;;;;9.13;7.57;;;;;;;18.30;100.00;97867.09;5161370;27;20051;-61
2023/07/25 01:46:15;;;;;;;9.40;7.68;;;;;;;18.24;100.00;97882.00;5161380;27;20141;-61
2023/07/25 01:48:41;;;;;;;11.35;5.43;;;;;;;18.20;100.00;97918.16;5161233;27;20047;-61
2023/07/25 01:51:08;;;;;;;11.38;5.25;;;;;;;18.38;100.00;97956.41;5161285;27;20166;-61
2023/07/25 01:53:34;;;;;;;7.00;4.70;;;;;;;18.38;100.00;97980.59;5161536;27;20057;-59
2023/07/25 01:56:00;;;;;;;10.38;7.55;;;;;;;18.28;100.00;98024.88;5161399;27;20050;-60
2023/07/25 01:58:26;;;;;;;10.32;5.43;;;;;;;18.47;100.00;98069.50;5161563;27;20360;-61
2023/07/25 02:00:56;;;;;;;10.38;8.88;;;;;;;18.47;100.00;98119.47;5161234;27;20339;-60
2023/07/25 02:03:22;;;;;;;7.70;4.90;;;;;;;18.38;100.00;98153.41;5161618;27;20050;-60
2023/07/25 02:05:48;;;;;;;5.97;4.88;;;;;;;18.24;100.00;98185.13;5161146;27;20381;-61
2023/07/25 02:08:14;;;;;;;9.10;6.03;;;;;;;18.31;100.00;98186.91;5161381;27;20068;-62
2023/07/25 02:10:40;;;;;;;9.57;7.95;;;;;;;18.18;100.00;98191.66;5160975;27;20051;-61
2023/07/25 02:13:06;;;;;;;9.20;5.72;;;;;;;18.19;100.00;98198.75;5161461;27;20184;-60
2023/07/25 02:15:32;;;;;;;7.32;5.50;;;;;;;18.14;100.00;98193.75;5160877;27;20046;-59
2023/07/25 02:17:58;;;;;;;9.05;5.90;;;;;;;18.35;100.00;98204.25;5161324;27;20142;-59
2023/07/25 02:20:25;;;;;;;9.20;8.10;;;;;;;18.42;100.00;98200.47;5161043;27;20075;-60
2023/07/25 02:22:51;;;;;;;6.95;5.50;;;;;;;18.22;100.00;98197.88;5161016;27;20050;-61
2023/07/25 02:25:17;;;;;;;8.63;5.55;;;;;;;18.43;100.00;98200.06;5161063;27;20053;-60
2023/07/25 02:27:43;;;;;;;9.90;8.38;;;;;;;18.40;100.00;98200.94;5160578;27;20400;-60
2023/07/25 02:30:10;;;;;;;9.52;5.63;;;;;;;18.28;100.00;98185.81;5160720;27;20058;-59
2023/07/25 02:32:37;;;;;;;9.05;5.57;;;;;;;18.47;100.00;98183.28;5160790;27;20137;-61
2023/07/25 02:35:03;;;;;;;9.70;8.20;;;;;;;18.25;100.00;98166.47;5160975;27;20150;-60
2023/07/25 02:37:29;;;;;;;8.88;5.47;;;;;;;18.42;100.00;98164.41;5160534;27;20103;-59
2023/07/25 02:39:55;;;;;;;10.73;8.93;;;;;;;18.55;100.00;98152.09;5161032;27;20440;-60
2023/07/25 02:42:22;;;;;;;10.55;5.95;;;;;;;18.42;100.00;98148.53;5160489;27;20051;-59
2023/07/25 02:44:47;;;;;;;11.57;6.75;;;;;;;18.37;100.00;98156.66;5160929;27;20055;-60
2023/07/25 02:47:13;;;;;;;10.23;6.30;;;;;;;18.30;100.00;98155.63;5159584;27;20050;-59
2023/07/25 02:49:40;;;;;;;11.75;8.40;;;;;;;18.34;100.00;98152.75;5160546;27;20053;-59
2023/07/25 02:52:07;;;;;;;8.30;5.40;;;;;;;18.32;100.00;98164.28;5160398;27;20051;-60
2023/07/25 02:54:33;;;;;;;10.38;8.07;;;;;;;18.31;100.00;98162.72;5160285;27;20411;-60
2023/07/25 02:56:58;;;;;;;13.43;5.72;;;;;;;18.56;100.00;98166.78;5160403;27;20142;-61
2023/07/25 02:59:24;;;;;;;12.90;6.15;;;;;;;18.52;100.00;98154.97;5160297;27;20137;-61
2023/07/25 03:01:50;;;;;;;8.98;7.75;;;;;;;18.50;100.00;98147.09;5160371;27;20047;-62
2023/07/25 03:04:16;;;;;;;11.73;6.03;;;;;;;18.62;100.00;98153.09;5160093;27;20133;-60
2023/07/25 03:06:43;;;;;;;14.48;6.57;;;;;;;18.47;100.00;98155.53;5160469;27;20320;-60
2023/07/25 03:09:09;;;;;;;11.05;6.35;;;;;;;18.41;100.00;98169.19;5160123;27;20043;-61
2023/07/25 03:11:35;;;;;;;10.48;6.32;;;;;;;18.50;100.00;98157.44;5160458;27;20438;-60
2023/07/25 03:14:00;;;;;;;8.98;5.55;;;;;;;18.81;100.00;98141.03;5160069;27;20149;-60
2023/07/25 03:16:26;;;;;;;10.20;5.50;;;;;;;18.79;100.00;98137.91;5160440;27;20051;-60
2023/07/25 03:18:52;;;;;;;8.98;5.65;;;;;;;18.87;100.00;98149.59;5160220;27;20323;-60
2023/07/25 03:21:18;;;;;;;8.82;5.53;;;;;;;18.95;100.00;98156.44;5159969;27;20050;-61
2023/07/25 03:23:45;;;;;;;9.82;6.32;;;;;;;18.04;100.00;98176.97;5159833;27;20133;-62
2023/07/25 03:26:11;;;;;;;17.52;6.72;;;;;;;18.58;100.00;98172.63;5159960;27;20073;-60
2023/07/25 03:28:37;;;;;;;9.13;5.85;;;;;;;18.17;100.00;98190.88;5160093;27;20134;-61
2023/07/25 03:31:04;;;;;;;10.30;6.22;;;;;;;18.38;100.00;98194.25;5159656;27;20047;-61
2023/07/25 03:33:30;;;;;;;10.32;6.00;;;;;;;18.35;100.00;98190.38;5160079;27;20050;-60
2023/07/25 03:35:56;;;;;;;15.02;7.20;;;;;;;18.51;100.00;98145.09;5159751;27;20138;-59
2023/07/25 03:38:22;;;;;;;12.18;7.05;;;;;;;18.38;100.00;98108.25;5159529;27;20408;-60
2023/07/25 03:40:49;;;;;;;14.63;7.47;;;;;;;18.10;100.00;98044.88;5159495;27;20054;-60
2023/07/25 03:43:15;;;;;;;13.35;7.50;;;;;;;18.03;100.00;97961.13;5159949;27;20133;-59
2023/07/25 03:45:40;;;;;;;13.68;7.47;;;;;;;18.15;100.00;97968.63;5159456;27;20415;-61
2023/07/25 03:48:06;;;;;;;11.25;6.95;;;;;;;17.98;100.00;97975.53;5159661;27;20358;-61
2023/07/25 03:50:32;;;;;;;14.30;7.93;;;;;;;17.79;100.00;97935.69;5159756;27;20061;-61
2023/07/25 03:52:59;;;;;;;12.02;7.28;;;;;;;17.73;100.00;97884.81;5159263;27;20475;-60
2023/07/25 03:55:25;;;;;;;13.93;7.85;;;;;;;17.73;100.00;97855.09;5159390;27;20400;-61
2023/07/25 03:57:51;;;;;;;12.20;8.32;;;;;;;17.75;100.00;97849.84;5158416;27;20057;-60
2023/07/25 04:00:17;;;;;;;15.52;7.25;;;;;;;17.81;100.00;97834.25;5158887;27;20065;-60
2023/07/25 04:02:43;;;;;;;11.45;7.90;;;;;;;17.76;100.00;97854.22;5159316;27;20137;-60
2023/07/25 04:05:09;;;;;;;13.68;7.72;;;;;;;17.62;100.00;97813.06;5159412;27;20085;-60
2023/07/25 04:07:35;;;;;;;14.32;7.72;;;;;;;17.66;100.00;97813.75;5158973;27;20050;-59
2023/07/25 04:10:01;;;;;;;17.15;8.85;;;;;;;17.88;100.00;97789.66;5159570;27;20051;-60
2023/07/25 04:12:27;;;;;;;11.20;7.60;;;;;;;17.74;100.00;97792.88;5158971;27;20354;-60
2023/07/25 04:14:54;;;;;;;14.30;11.45;;;;;;;17.93;100.00;97777.25;5159413;27;20075;-61
2023/07/25 04:17:20;;;;;;;11.40;8.27;;;;;;;18.16;100.00;97786.34;5158901;27;20134;-60
2023/07/25 04:19:46;;;;;;;14.85;12.38;;;;;;;17.75;100.00;97790.88;5159031;27;20324;-60
2023/07/25 04:22:12;;;;;;;12.77;8.38;;;;;;;18.26;100.00;97776.88;5159137;27;20141;-61
2023/07/25 04:24:38;;;;;;;14.05;11.48;;;;;;;18.07;100.00;97789.84;5158958;27;20445;-61
2023/07/25 04:27:05;;;;;;;13.55;8.13;;;;;;;17.76;100.00;97775.78;5159141;27;20043;-61
2023/07/25 04:29:30;;;;;;;11.50;8.30;;;;;;;17.87;100.00;97749.31;5158702;27;20426;-60
2023/07/25 04:31:57;;;;;;;15.38;8.00;;;;;;;17.99;100.00;97753.25;5159131;27;20042;-60
2023/07/25 04:34:23;;;;;;;12.27;8.68;;;;;;;18.06;100.00;97764.13;5158714;27;20153;-61
2023/07/25 04:36:49;;;;;;;13.30;8.38;;;;;;;17.98;100.00;97757.25;5158985;27;20051;-60
2023/07/25 04:39:15;;;;;;;16.25;8.43;;;;;;;18.08;100.00;97758.09;5158633;27;20056;-60
2023/07/25 04:41:41;;;;;;;16.77;8.77;;;;;;;17.94;100.00;97745.50;5158985;27;20083;-60
2023/07/25 04:44:07;;;;;;;16.42;12.40;;;;;;;17.76;100.00;97737.81;5158615;27;20078;-61
2023/07/25 04:46:33;;;;;;;15.32;9.00;;;;;;;18.12;100.00;97714.38;5158873;27;20058;-61
2023/07/25 04:48:59;;;;;;;17.25;13.85;;;;;;;18.47;100.00;97731.75;5158418;27;20404;-61
2023/07/25 04:51:25;;;;;;;13.60;9.45;;;;;;;18.50;100.00;97755.03;5158546;27;20133;-61
2023/07/25 04:53:51;;;;;;;15.05;9.13;;;;;;;18.56;100.00;97767.13;5158588;27;20312;-60
2023/07/25 04:56:17;;;;;;;12.88;8.63;;;;;;;18.41;100.00;97783.50;5158411;27;20107;-60
2023/07/25 04:58:43;;;;;;;15.38;8.90;;;;;;;18.44;100.00;97798.47;5158512;27;20046;-61
2023/07/25 05:01:10;;;;;;;15.30;9.00;;;;;;;18.65;100.00;97781.03;5158002;27;20154;-61
2023/07/25 05:03:36;;;;;;;17.15;13.80;;;;;;;18.50;100.00;97797.44;5158415;27;20046;-61
2023/07/25 05:06:02;;;;;;;22.20;9.23;;;;;;;19.00;100.00;97794.84;5158087;27;20327;-62
2023/07/25 05:08:28;;;;;;;20.77;13.70;;;;;;;19.02;100.00;97814.59;5158549;27;20391;-61
2023/07/25 05:10:54;;;;;;;14.68;8.77;;;;;;;18.54;100.00;97825.06;5157584;27;20050;-61
2023/07/25 05:13:20;;;;;;;16.40;9.45;;;;;;;18.83;100.00;97822.06;5158061;27;20133;-61
2023/07/25 05:15:46;;;;;;;12.45;8.25;;;;;;;18.96;100.00;97842.19;5157684;27;20050;-54
2023/07/25 05:18:12;;;;;;;11.00;7.45;;;;;;;18.81;100.00;97858.59;5155776;27;20115;-57
2023/07/25 05:20:39;;;;;;;13.20;8.48;;;;;;;19.27;100.00;97863.66;5120221;28;20051;-59
2023/07/25 05:23:06;;;;;;;13.95;8.20;;;;;;;19.22;100.00;97889.25;5137125;28;20492;-59
2023/07/25 05:25:32;;;;;;;12.32;8.05;;;;;;;18.94;100.00;97929.97;5137070;28;20058;-62
2023/07/25 05:27:58;;;;;;;14.70;8.05;;;;;;;19.36;100.00;97933.19;5137165;28;20056;-59
2023/07/25 05:30:24;;;;;;;15.68;8.70;;;;;;;19.56;100.00;97945.94;5137120;28;20138;-59
2023/07/25 05:32:50;;;;;;;10.65;8.20;;;;;;;19.28;100.00;97965.22;5137369;27;20133;-59
2023/07/25 05:35:16;;;;;;;14.10;8.18;;;;;;;19.23;100.00;97955.50;5137042;28;20115;-60
2023/07/25 05:37:42;;;;;;;13.80;11.40;;;;;;;19.42;100.00;97955.59;5137272;27;20043;-57
2023/07/25 05:40:08;;;;;;;13.05;8.38;;;;;;;19.45;100.00;97946.34;5136821;28;20051;-59
2023/07/25 05:42:34;;;;;;;14.55;8.48;;;;;;;19.62;100.00;97955.25;5137124;27;20480;-59
2023/07/25 05:45:00;;;;;;;12.20;8.15;;;;;;;19.69;100.00;97964.13;5136751;27;20051;-58
2023/07/25 05:47:27;;;;;;;12.20;7.55;;;;;;;19.33;100.00;97963.91;5136641;28;20043;-59
2023/07/25 05:49:53;;;;;;;13.23;7.82;;;;;;;19.26;100.00;97946.25;5136997;28;20428;-59
2023/07/25 05:52:19;;;;;;;14.23;9.60;;;;;;;19.13;100.00;97905.88;5136770;28;20055;-60
2023/07/25 05:54:45;;;;;;;13.88;7.50;;;;;;;18.92;100.00;97905.41;5136695;28;20061;-62
2023/07/25 05:57:11;;;;;;;12.32;8.68;;;;;;;19.50;100.00;97874.28;5136816;28;20047;-59
2023/07/25 05:59:37;;;;;;;10.88;7.20;;;;;;;19.14;100.00;97937.97;5136735;28;20094;-58
2023/07/25 06:02:04;;;;;;;13.68;10.80;;;;;;;19.68;100.00;97939.56;5136477;28;20055;-56
2023/07/25 06:04:30;;;;;;;13.13;8.18;;;;;;;19.21;100.00;97962.72;5137004;28;20047;-55
2023/07/25 06:06:56;;;;;;;14.23;7.60;;;;;;;19.87;100.00;97969.00;5136702;27;20486;-59
2023/07/25 06:09:22;;;;;;;10.63;7.68;;;;;;;19.48;100.00;97990.69;5136807;28;20055;-58
2023/07/25 06:11:48;;;;;;;12.60;8.48;;;;;;;20.01;100.00;97987.16;5136369;28;20066;-60
2023/07/25 06:14:14;;;;;;;15.55;7.57;;;;;;;20.25;100.00;98020.00;5136466;28;20130;-55
2023/07/25 06:16:40;;;;;;;12.23;8.05;;;;;;;19.93;100.00;98058.19;5136335;28;20089;-59
2023/07/25 06:19:06;;;;;;;8.85;6.72;;;;;;;19.63;100.00;98051.34;5136607;28;20145;-58
2023/07/25 06:21:32;;;;;;;13.07;7.07;;;;;;;19.89;100.00;98055.56;5136949;27;20057;-57
2023/07/25 06:23:58;;;;;;;14.52;7.45;;;;;;;20.07;100.00;98060.44;5139997;28;20328;-56
2023/07/25 06:26:24;;;;;;;9.43;6.82;;;;;;;20.12;100.00;98048.69;5139759;28;20061;-59
2023/07/25 06:28:52;;;;;;;17.60;6.97;;;;;;;21.99;100.00;98033.31;5139840;27;20046;-59
2023/07/25 06:31:19;;;;;;;9.98;5.93;;;;;;;23.14;100.00;97735.81;5140069;27;20051;-56
2023/07/25 06:33:45;;;;;;;10.00;6.88;;;;;;;23.58;100.00;97262.22;5139528;28;20051;-57
2023/07/25 06:36:11;;;;;;;14.18;7.00;;;;;;;24.15;100.00;96751.03;5139948;27;20385;-57
2023/07/25 06:38:36;;;;;;;15.27;6.32;;;;;;;24.94;100.00;96568.47;5139604;27;20146;-58
2023/07/25 06:41:02;;;;;;;10.93;6.75;;;;;;;26.00;100.00;96541.97;5139909;27;20119;-61
2023/07/25 06:43:28;;;;;;;14.65;9.25;;;;;;;26.43;100.00;96632.97;5139482;28;20047;-61
2023/07/25 06:45:54;;;;;;;12.02;8.60;;;;;;;27.76;100.00;96644.47;5139439;28;20058;-62
2023/07/25 06:48:21;;;;;;;16.15;8.77;;;;;;;28.07;100.00;96699.94;5139681;28;20054;-61
2023/07/25 06:50:47;;;;;;;12.50;8.77;;;;;;;28.01;100.00;96870.31;5139493;28;20047;-60
2023/07/25 06:53:13;;;;;;;13.20;9.38;;;;;;;28.15;100.00;96888.75;5138710;28;20480;-62
2023/07/25 06:55:38;;;;;;;11.48;8.32;;;;;;;28.70;100.00;96951.03;5139002;28;20142;-57
2023/07/25 06:58:05;;;;;;;13.15;8.13;;;;;;;27.79;100.00;96883.50;5139373;28;20063;-61
2023/07/25 07:00:31;;;;;;;11.27;8.02;;;;;;;28.07;100.00;97104.75;5139023;28;20525;-63
2023/07/25 07:02:56;;;;;;;13.50;8.10;;;;;;;28.79;100.00;96961.09;5139314;28;20138;-63
2023/07/25 07:05:23;;;;;;;10.90;7.25;;;;;;;28.73;100.00;97076.81;5139035;28;20051;-63
2023/07/25 07:07:49;;;;;;;10.07;8.05;;;;;;;29.90;100.00;97104.09;5139358;27;20133;-63
2023/07/25 07:10:15;;;;;;;8.75;7.38;;;;;;;29.46;100.00;97125.53;5139242;28;20051;-63
2023/07/25 07:12:46;;;;;;;8.27;7.28;;;;;;;29.51;100.00;97111.28;5139439;28;20071;-61
2023/07/25 07:15:12;;;;;;;12.07;7.53;;;;;;;28.78;100.00;97104.16;5139239;28;20047;-65
2023/07/25 07:17:38;;;;;;;8.30;7.13;;;;;;;29.30;100.00;97119.66;5139132;28;20320;-62
2023/07/25 07:20:05;;;;;;;9.20;7.20;;;;;;;28.88;100.00;97134.75;5139234;28;20051;-61
2023/07/25 07:22:32;;;;;;;9.05;7.25;;;;;;;28.92;100.00;97169.78;5139271;28;20145;-64
2023/07/25 07:24:58;;;;;;;13.25;7.68;;;;;;;29.63;100.00;97161.94;5139153;27;20079;-63
2023/07/25 07:27:24;;;;;;;8.68;6.63;;;;;;;29.39;100.00;97205.97;5138898;28;20167;-64
2023/07/25 07:29:52;;;;;;;8.40;7.35;;;;;;;29.94;100.00;97180.78;5138943;28;20058;-63
2023/07/25 07:32:18;;;;;;;11.90;7.45;;;;;;;29.48;100.00;97173.72;5138433;27;20374;-58
2023/07/25 07:34:44;;;;;;;10.60;7.00;;;;;;;29.67;100.00;97201.88;5138960;28;20043;-56
2023/07/25 07:37:10;;;;;;;8.43;7.45;;;;;;;30.21;100.00;97175.88;5138428;27;20435;-57
2023/07/25 07:39:38;;;;;;;10.13;7.47;;;;;;;29.34;100.00;97141.91;5138365;27;20055;-58
2023/07/25 07:42:04;;;;;;;7.47;6.68;;;;;;;28.21;100.00;97122.47;5137721;27;20051;-58
2023/07/25 07:44:30;;;;;;;8.68;7.78;;;;;;;27.90;100.00;96998.75;5138012;28;20043;-60
2023/07/25 07:46:56;;;;;;;9.65;7.90;;;;;;;27.94;100.00;96964.63;5138101;27;20138;-56
2023/07/25 07:49:22;;;;;;;10.35;7.50;;;;;;;27.41;100.00;96979.19;5138507;28;20054;-57
2023/07/25 07:51:48;;;;;;;8.50;7.10;;;;;;;27.20;100.00;96871.34;5138603;28;20051;-54
2023/07/25 07:54:14;;;;;;;8.88;7.20;;;;;;;26.78;100.00;96954.41;5138347;27;20154;-57
2023/07/25 07:56:40;;;;;;;8.35;7.55;;;;;;;25.32;100.00;96768.44;5138667;27;20409;-58
2023/07/25 07:59:07;;;;;;;13.02;7.85;;;;;;;25.25;100.00;96685.66;5138279;28;20138;-59
2023/07/25 08:01:33;;;;;;;13.23;8.18;;;;;;;27.06;100.00;96867.66;5138669;28;20133;-60
2023/07/25 08:03:59;;;;;;;8.80;7.50;;;;;;;26.70;100.00;96937.38;5138325;28;20195;-62
2023/07/25 08:06:25;;;;;;;10.65;7.85;;;;;;;27.85;100.00;96993.94;5138588;27;20142;-58
2023/07/25 08:08:51;;;;;;;10.13;8.68;;;;;;;28.42;100.00;96959.25;5138165;28;20473;-59
2023/07/25 08:11:16;;;;;;;11.32;7.93;;;;;;;28.95;100.00;97060.78;5138460;28;20398;-60
2023/07/25 08:13:43;;;;;;;8.77;7.15;;;;;;;28.26;100.00;97054.78;5137974;28;20046;-62
2023/07/25 08:16:09;;;;;;;9.43;7.18;;;;;;;28.97;100.00;97140.00;5138240;28;20212;-60
2023/07/25 08:18:35;;;;;;;8.48;7.65;;;;;;;28.29;100.00;97069.81;5138006;27;20046;-60
2023/07/25 08:21:02;;;;;;;10.30;7.55;;;;;;;29.52;100.00;97145.91;5137694;28;20141;-61
2023/07/25 08:23:28;;;;;;;8.45;7.65;;;;;;;27.87;100.00;97078.66;5137999;28;20145;-57
2023/07/25 08:25:54;;;;;;;10.18;7.32;;;;;;;29.65;100.00;97128.25;5137954;28;20047;-58
2023/07/25 08:28:20;;;;;;;8.60;7.70;;;;;;;30.13;100.00;97151.66;5138015;27;20417;-58
2023/07/25 08:30:47;;;;;;;9.60;7.82;;;;;;;30.91;100.00;97169.63;5136979;27;20082;-59
2023/07/25 08:33:15;;;;;;;8.60;7.28;;;;;;;29.84;100.00;97094.22;5137906;27;20047;-59
2023/07/25 08:35:41;;;;;;;10.05;7.78;;;;;;;29.99;100.00;97177.09;5137650;28;20137;-61
2023/07/25 08:38:07;;;;;;;10.10;7.45;;;;;;;29.21;100.00;97069.28;5138139;27;20058;-58
2023/07/25 08:40:33;;;;;;;11.45;7.30;;;;;;;28.94;100.00;97079.03;5137513;28;20325;-56
2023/07/25 08:43:03;;;;;;;9.00;7.63;;;;;;;28.47;100.00;97051.41;5137856;28;20074;-58
2023/07/25 08:45:30;;;;;;;9.65;7.55;;;;;;;28.16;100.00;96966.34;5137163;27;20047;-61
2023/07/25 08:48:03;;;;;;;9.07;7.50;;;;;;;28.40;100.00;96995.66;5137631;28;20134;-59
2023/07/25 08:50:31;;;;;;;10.93;7.57;;;;;;;27.77;100.00;97024.00;5137654;28;20315;-61
2023/07/25 08:53:00;;;;;;;9.05;8.15;;;;;;;28.10;100.00;96918.53;5137449;28;20058;-59
2023/07/25 08:55:26;;;;;;;9.38;7.30;;;;;;;27.47;100.00;96846.88;5137762;28;20187;-60
2023/07/25 08:57:53;;;;;;;12.35;7.93;;;;;;;28.11;100.00;96882.69;5137167;28;20138;-59
2023/07/25 09:00:20;;;;;;;10.88;7.65;;;;;;;28.04;100.00;96965.75;5137435;28;20058;-60
2023/07/25 09:02:47;;;;;;;9.80;7.43;;;;;;;27.70;100.00;96866.97;5137191;28;20444;-61
2023/07/25 09:05:14;;;;;;;11.63;7.40;;;;;;;27.43;100.00;96888.63;5137731;27;20096;-59
2023/07/25 09:07:40;;;;;;;8.45;7.65;;;;;;;26.72;100.00;96811.91;5136968;27;20155;-56
2023/07/25 09:10:07;;;;;;;11.02;8.15;;;;;;;27.05;100.00;96846.44;5137223;28;20047;-58
2023/07/25 09:12:33;;;;;;;13.32;7.63;;;;;;;27.09;100.00;96846.13;5137468;28;20062;-59
2023/07/25 09:14:59;;;;;;;12.25;8.02;;;;;;;27.04;100.00;96849.81;5137410;28;20138;-59
2023/07/25 09:17:25;;;;;;;14.02;8.35;;;;;;;26.29;100.00;96764.91;5137410;27;20043;-60
2023/07/25 09:19:52;;;;;;;9.05;7.38;;;;;;;26.57;100.00;96724.47;5137618;28;20047;-65
2023/07/25 09:22:28;;;;;;;10.05;8.10;;;;;;;26.96;100.00;96787.81;5137146;27;20078;-57
2023/07/25 09:24:54;;;;;;;9.63;8.63;;;;;;;26.73;100.00;96793.75;5136734;27;20054;-58
2023/07/25 09:27:20;;;;;;;8.73;7.72;;;;;;;26.97;100.00;96880.03;5137414;28;20055;-61
2023/07/25 09:29:50;;;;;;;9.00;7.93;;;;;;;27.20;100.00;96874.91;5136933;28;20085;-60
2023/07/25 09:32:21;;;;;;;8.90;7.30;;;;;;;27.09;100.00;96900.34;5137485;28;20146;-60
2023/07/25 09:34:54;;;;;;;9.30;8.05;;;;;;;26.89;100.00;96879.13;5137083;28;20130;-57
2023/07/25 09:37:20;;;;;;;7.68;6.85;;;;;;;28.19;100.00;96956.81;5136900;27;20376;-58
2023/07/25 09:39:47;;;;;;;9.70;7.88;;;;;;;28.59;100.00;97042.22;5137147;28;20047;-57
2023/07/25 09:42:13;;;;;;;10.48;7.38;;;;;;;28.30;100.00;97077.75;5136743;27;20385;-57
2023/07/25 09:44:45;;;;;;;9.00;7.22;;;;;;;29.43;100.00;97137.91;5136980;28;20132;-56
2023/07/25 09:47:11;;;;;;;9.18;7.72;;;;;;;29.15;100.00;97110.19;5136872;28;20118;-59
2023/07/25 09:49:37;;;;;;;11.98;7.60;;;;;;;29.38;100.00;97108.47;5137178;27;20055;-57
2023/07/25 09:52:05;;;;;;;10.55;7.50;;;;;;;29.45;100.00;97124.75;5136865;28;20058;-59
2023/07/25 09:54:31;;;;;;;10.52;7.97;;;;;;;29.74;100.00;97127.81;5137034;27;20397;-60
2023/07/25 09:56:58;;;;;;;9.75;8.75;;;;;;;29.42;100.00;97105.31;5139068;27;20491;-55
2023/07/25 09:59:23;;;;;;;8.35;7.47;;;;;;;30.35;100.00;97148.31;5140441;28;20047;-59
2023/07/25 10:01:51;;;;;;;9.98;7.25;;;;;;;30.37;100.00;97159.09;5140232;28;20294;-61
2023/07/25 10:04:17;;;;;;;10.50;6.72;;;;;;;30.07;100.00;97187.72;5139954;28;20419;-57
2023/07/25 10:06:45;;;;;;;9.23;7.72;;;;;;;29.95;100.00;97158.94;5139848;27;20133;-58
2023/07/25 10:09:14;;;;;;;9.60;6.90;;;;;;;29.27;100.00;97123.56;5139944;28;20428;-60
2023/07/25 10:11:40;;;;;;;8.00;7.03;;;;;;;28.67;100.00;97112.06;5140386;28;20106;-61
2023/07/25 10:14:08;;;;;;;7.97;7.18;;;;;;;29.32;100.00;97093.69;5139963;28;20108;-61
2023/07/25 10:16:36;;;;;;;10.68;8.35;;;;;;;29.22;100.00;97064.41;5140312;27;20072;-58
2023/07/25 10:19:05;;;;;;;8.23;7.43;;;;;;;28.09;100.00;97040.97;5139849;27;20047;-59
2023/07/25 10:21:46;;;;;;;8.77;7.65;;;;;;;27.59;100.00;97038.81;5139859;27;20051;-58
2023/07/25 10:24:13;;;;;;;8.63;6.72;;;;;;;27.30;100.00;97058.13;5139589;27;20075;-59
2023/07/25 10:26:52;;;;;;;9.05;7.43;;;;;;;27.49;100.00;97046.13;5139952;28;20051;-61
2023/07/25 10:29:37;;;;;;;8.95;7.03;;;;;;;28.15;100.00;97016.25;5139836;27;20055;-59
2023/07/25 10:32:04;;;;;;;11.10;6.72;;;;;;;28.44;100.00;96999.69;5139828;28;20058;-58
2023/07/25 10:34:43;;;;;;;8.20;7.40;;;;;;;28.47;100.00;97014.75;5140116;28;20138;-58
2023/07/25 10:37:27;;;;;;;13.20;7.63;;;;;;;28.89;100.00;97035.53;5139571;27;20107;-61
2023/07/25 10:40:04;;;;;;;7.55;6.78;;;;;;;28.82;100.00;97086.91;5139648;27;20143;-58
2023/07/25 10:42:49;;;;;;;9.98;7.22;;;;;;;28.80;100.00;97064.16;5139687;27;20047;-62
2023/07/25 10:45:52;;;;;;;10.18;7.43;;;;;;;28.51;100.00;97004.69;5138796;28;20062;-62
2023/07/25 10:48:32;;;;;;;8.07;7.10;;;;;;;28.62;100.00;97031.91;5139855;28;20134;-60
2023/07/25 10:50:59;;;;;;;7.45;6.75;;;;;;;28.37;100.00;96994.66;5139278;28;20087;-59
2023/07/25 10:53:25;;;;;;;9.27;6.95;;;;;;;28.41;100.00;97059.19;5139694;27;20086;-59
2023/07/25 10:56:13;;;;;;;8.27;7.20;;;;;;;28.60;100.00;97065.53;5139347;28;20053;-57
2023/07/25 10:59:04;;;;;;;8.23;7.32;;;;;;;28.66;100.00;97056.94;5139233;28;20047;-56
2023/07/25 11:01:43;;;;;;;8.80;7.60;;;;;;;29.19;100.00;97080.38;5139352;28;20392;-63
2023/07/25 11:04:23;;;;;;;10.90;6.75;;;;;;;28.33;100.00;97064.66;5139192;28;20138;-60
2023/07/25 11:06:50;;;;;;;9.90;6.70;;;;;;;28.46;100.00;97030.91;5139489;27;20185;-60
2023/07/25 11:09:16;;;;;;;7.65;6.47;;;;;;;29.14;100.00;97024.81;5138796;27;20051;-65
2023/07/25 11:11:44;;;;;;;11.50;7.35;;;;;;;28.92;100.00;97017.50;5139191;28;20065;-62
2023/07/25 11:14:12;;;;;;;13.30;8.02;;;;;;;29.20;100.00;97052.91;5139018;28;20091;-61
2023/07/25 11:16:40;;;;;;;19.58;8.07;;;;;;;28.84;100.00;96988.44;5138957;28;20088;-60
2023/07/25 11:19:07;;;;;;;12.38;7.72;;;;;;;28.31;100.00;96994.00;5139181;28;20057;-61